Lake Cherokee, Texas
Current Conditions -  °F | °C
As of 7:15 PM on Saturday 22 Nov 2014 (Local Time) from KRFI Reporting Station
Heavy Rain Heavy Rain  
Wind Chill: 62°   Ceiling: 4700
Heat Index: 62°   Visibility: 4mi
Dew Point: 62°   Wind: 5mph
Humidity: 98%   Direction: 80°E
Pressure: 29.87"   Gusts: NA
Location:  32.1449°N, 94.7416°W
Report Text: KRFI 230115Z AUTO 08004KT 4SM +RA SCT033 BKN047 OVC075 17/17 A2987 RMK AO2 LTG DSNT S T01680165
Loading
Personal Weather Stations






























Interactive Weather Map New forecast layout! Learn more

10-Day Weather Forecast

Advertisements
Track Severe Weather on mobile